sensor_id;sensor_type;location;lat;lon;timestamp;pressure;altitude;pressure_sealevel;temperature;humidity
28027;BME280;15344;52.342;-1.290;2022-12-07T00:01:04;101068.25;;;6.77;79.98
28027;BME280;15344;52.342;-1.290;2022-12-07T00:03:22;101075.91;;;6.68;80.21
28027;BME280;15344;52.342;-1.290;2022-12-07T00:05:48;101079.02;;;6.40;80.67
28027;BME280;15344;52.342;-1.290;2022-12-07T00:08:14;101078.49;;;6.59;79.81
28027;BME280;15344;52.342;-1.290;2022-12-07T00:10:39;101075.43;;;6.46;79.47
28027;BME280;15344;52.342;-1.290;2022-12-07T00:13:05;101070.18;;;7.21;78.09
28027;BME280;15344;52.342;-1.290;2022-12-07T00:15:30;101069.25;;;6.63;78.41
28027;BME280;15344;52.342;-1.290;2022-12-07T00:17:56;101071.11;;;5.77;81.32
28027;BME280;15344;52.342;-1.290;2022-12-07T00:20:21;101070.58;;;5.76;83.21
28027;BME280;15344;52.342;-1.290;2022-12-07T00:22:46;101067.83;;;6.27;80.62
28027;BME280;15344;52.342;-1.290;2022-12-07T00:25:11;101065.46;;;5.76;80.65
28027;BME280;15344;52.342;-1.290;2022-12-07T00:27:36;101065.48;;;6.61;81.37
28027;BME280;15344;52.342;-1.290;2022-12-07T00:30:02;101060.50;;;6.66;79.50
28027;BME280;15344;52.342;-1.290;2022-12-07T00:32:26;101060.75;;;5.45;84.64
28027;BME280;15344;52.342;-1.290;2022-12-07T00:34:53;101055.05;;;5.05;87.57
28027;BME280;15344;52.342;-1.290;2022-12-07T00:37:18;101059.13;;;5.27;86.68
28027;BME280;15344;52.342;-1.290;2022-12-07T00:39:43;101061.04;;;5.99;83.91
28027;BME280;15344;52.342;-1.290;2022-12-07T00:42:08;101061.63;;;6.41;81.00
28027;BME280;15344;52.342;-1.290;2022-12-07T00:44:33;101062.94;;;5.96;85.30
28027;BME280;15344;52.342;-1.290;2022-12-07T00:46:59;101061.59;;;6.09;82.19
28027;BME280;15344;52.342;-1.290;2022-12-07T00:49:25;101059.76;;;5.24;85.30
28027;BME280;15344;52.342;-1.290;2022-12-07T00:51:50;101058.89;;;4.96;88.40
28027;BME280;15344;52.342;-1.290;2022-12-07T00:54:16;101064.85;;;5.42;85.16
28027;BME280;15344;52.342;-1.290;2022-12-07T00:56:41;101064.01;;;5.44;85.39
28027;BME280;15344;52.342;-1.290;2022-12-07T00:59:06;101065.17;;;5.57;84.66
28027;BME280;15344;52.342;-1.290;2022-12-07T01:01:34;101057.34;;;4.97;89.71
28027;BME280;15344;52.342;-1.290;2022-12-07T01:03:57;101052.81;;;5.43;88.59
28027;BME280;15344;52.342;-1.290;2022-12-07T01:06:24;101051.38;;;4.90;90.37
28027;BME280;15344;52.342;-1.290;2022-12-07T01:08:49;101051.06;;;4.81;93.59
28027;BME280;15344;52.342;-1.290;2022-12-07T01:11:16;101049.81;;;5.48;88.18
28027;BME280;15344;52.342;-1.290;2022-12-07T01:13:39;101052.73;;;4.95;90.22
28027;BME280;15344;52.342;-1.290;2022-12-07T01:16:06;101048.75;;;5.16;90.55
28027;BME280;15344;52.342;-1.290;2022-12-07T01:18:32;101050.58;;;5.55;88.46
28027;BME280;15344;52.342;-1.290;2022-12-07T01:21:00;101048.15;;;4.70;92.98
28027;BME280;15344;52.342;-1.290;2022-12-07T01:23:20;101050.44;;;5.60;87.48
28027;BME280;15344;52.342;-1.290;2022-12-07T01:25:46;101054.82;;;6.52;83.91
28027;BME280;15344;52.342;-1.290;2022-12-07T01:28:11;101053.04;;;6.29;83.91
28027;BME280;15344;52.342;-1.290;2022-12-07T01:30:36;101046.02;;;6.53;82.02
28027;BME280;15344;52.342;-1.290;2022-12-07T01:33:01;101050.35;;;6.61;79.95
28027;BME280;15344;52.342;-1.290;2022-12-07T01:35:26;101053.75;;;5.32;83.61
28027;BME280;15344;52.342;-1.290;2022-12-07T01:37:52;101050.23;;;5.26;88.13
28027;BME280;15344;52.342;-1.290;2022-12-07T01:40:17;101046.26;;;4.73;89.55
28027;BME280;15344;52.342;-1.290;2022-12-07T01:42:45;101048.54;;;6.20;84.47
28027;BME280;15344;52.342;-1.290;2022-12-07T01:47:34;101039.33;;;5.74;84.61
28027;BME280;15344;52.342;-1.290;2022-12-07T01:50:00;101041.80;;;5.12;86.75
28027;BME280;15344;52.342;-1.290;2022-12-07T01:52:29;101044.98;;;5.54;86.83
28027;BME280;15344;52.342;-1.290;2022-12-07T01:54:55;101043.47;;;5.65;85.13
28027;BME280;15344;52.342;-1.290;2022-12-07T01:57:17;101036.99;;;5.48;85.36
28027;BME280;15344;52.342;-1.290;2022-12-07T01:59:43;101038.51;;;5.75;84.04
28027;BME280;15344;52.342;-1.290;2022-12-07T02:02:12;101039.48;;;4.67;88.88
28027;BME280;15344;52.342;-1.290;2022-12-07T02:04:33;101041.25;;;4.66;88.87
28027;BME280;15344;52.342;-1.290;2022-12-07T02:06:58;101038.32;;;5.14;88.46
28027;BME280;15344;52.342;-1.290;2022-12-07T02:09:23;101031.45;;;5.29;87.35
28027;BME280;15344;52.342;-1.290;2022-12-07T02:11:49;101038.22;;;4.56;92.54
28027;BME280;15344;52.342;-1.290;2022-12-07T02:14:14;101040.10;;;5.49;88.08
28027;BME280;15344;52.342;-1.290;2022-12-07T02:16:49;101041.30;;;5.90;85.31
28027;BME280;15344;52.342;-1.290;2022-12-07T02:21:37;101039.53;;;5.83;84.09
28027;BME280;15344;52.342;-1.290;2022-12-07T02:28:58;101033.04;;;5.87;82.88
28027;BME280;15344;52.342;-1.290;2022-12-07T02:31:15;101027.03;;;5.21;85.71
28027;BME280;15344;52.342;-1.290;2022-12-07T02:33:42;101024.83;;;4.98;86.52
28027;BME280;15344;52.342;-1.290;2022-12-07T02:36:06;101026.94;;;5.45;85.15
28027;BME280;15344;52.342;-1.290;2022-12-07T02:38:34;101025.22;;;5.40;85.98
28027;BME280;15344;52.342;-1.290;2022-12-07T02:41:03;101026.18;;;5.73;84.77
28027;BME280;15344;52.342;-1.290;2022-12-07T02:43:24;101026.29;;;6.45;80.88
28027;BME280;15344;52.342;-1.290;2022-12-07T02:45:45;101026.32;;;5.98;82.16
28027;BME280;15344;52.342;-1.290;2022-12-07T02:48:12;101025.34;;;6.10;81.48
28027;BME280;15344;52.342;-1.290;2022-12-07T02:50:35;101029.88;;;5.57;80.30
28027;BME280;15344;52.342;-1.290;2022-12-07T02:53:01;101024.42;;;5.59;82.16
28027;BME280;15344;52.342;-1.290;2022-12-07T02:55:30;101023.79;;;5.62;82.63
28027;BME280;15344;52.342;-1.290;2022-12-07T02:58:04;101026.34;;;6.21;80.34
28027;BME280;15344;52.342;-1.290;2022-12-07T03:00:19;101018.43;;;5.72;82.04
28027;BME280;15344;52.342;-1.290;2022-12-07T03:02:51;101018.56;;;5.90;81.20
28027;BME280;15344;52.342;-1.290;2022-12-07T03:05:19;101022.60;;;5.59;83.02
28027;BME280;15344;52.342;-1.290;2022-12-07T03:07:39;101020.54;;;5.40;84.73
28027;BME280;15344;52.342;-1.290;2022-12-07T03:10:03;101019.63;;;5.74;84.44
28027;BME280;15344;52.342;-1.290;2022-12-07T03:12:29;101021.97;;;5.48;83.65
28027;BME280;15344;52.342;-1.290;2022-12-07T03:14:55;101018.05;;;5.64;83.31
28027;BME280;15344;52.342;-1.290;2022-12-07T03:17:17;101015.60;;;5.75;81.60
28027;BME280;15344;52.342;-1.290;2022-12-07T03:19:41;101014.07;;;6.07;81.12
28027;BME280;15344;52.342;-1.290;2022-12-07T03:22:08;101016.39;;;5.73;81.78
28027;BME280;15344;52.342;-1.290;2022-12-07T03:24:33;101006.16;;;6.61;77.59
28027;BME280;15344;52.342;-1.290;2022-12-07T03:27:01;101006.56;;;5.37;80.63
28027;BME280;15344;52.342;-1.290;2022-12-07T03:29:25;101002.27;;;5.48;82.94
28027;BME280;15344;52.342;-1.290;2022-12-07T03:31:50;101000.74;;;4.48;85.54
28027;BME280;15344;52.342;-1.290;2022-12-07T03:34:16;101003.43;;;5.40;83.22
28027;BME280;15344;52.342;-1.290;2022-12-07T03:36:41;101005.17;;;6.18;80.53
28027;BME280;15344;52.342;-1.290;2022-12-07T03:39:16;101004.66;;;5.29;84.01
28027;BME280;15344;52.342;-1.290;2022-12-07T03:41:31;100998.98;;;4.47;86.16
28027;BME280;15344;52.342;-1.290;2022-12-07T03:43:54;100997.51;;;5.80;82.97
28027;BME280;15344;52.342;-1.290;2022-12-07T03:46:25;100997.92;;;5.70;82.59
28027;BME280;15344;52.342;-1.290;2022-12-07T03:48:52;101000.99;;;6.05;80.94
28027;BME280;15344;52.342;-1.290;2022-12-07T03:51:14;100997.38;;;5.46;80.97
28027;BME280;15344;52.342;-1.290;2022-12-07T03:53:41;100999.12;;;5.92;79.49
28027;BME280;15344;52.342;-1.290;2022-12-07T03:56:02;100997.59;;;5.70;82.17
28027;BME280;15344;52.342;-1.290;2022-12-07T03:58:27;100999.90;;;5.71;80.24
28027;BME280;15344;52.342;-1.290;2022-12-07T04:00:52;100994.11;;;6.41;78.18
28027;BME280;15344;52.342;-1.290;2022-12-07T04:03:17;100987.91;;;6.20;78.41
28027;BME280;15344;52.342;-1.290;2022-12-07T04:05:42;100985.25;;;5.72;81.08
28027;BME280;15344;52.342;-1.290;2022-12-07T04:08:07;100981.34;;;6.04;80.40
28027;BME280;15344;52.342;-1.290;2022-12-07T04:10:32;100978.30;;;6.24;79.73
28027;BME280;15344;52.342;-1.290;2022-12-07T04:12:58;100980.31;;;5.92;81.27
28027;BME280;15344;52.342;-1.290;2022-12-07T04:15:24;100981.52;;;5.27;82.83
28027;BME280;15344;52.342;-1.290;2022-12-07T04:17:49;100979.70;;;5.35;80.65
28027;BME280;15344;52.342;-1.290;2022-12-07T04:20:15;100976.36;;;6.32;78.71
28027;BME280;15344;52.342;-1.290;2022-12-07T04:22:40;100981.83;;;6.05;79.86
28027;BME280;15344;52.342;-1.290;2022-12-07T04:25:06;100982.57;;;5.11;82.87
28027;BME280;15344;52.342;-1.290;2022-12-07T04:27:30;100990.71;;;6.03;79.47
28027;BME280;15344;52.342;-1.290;2022-12-07T04:29:56;100989.19;;;5.47;80.95
28027;BME280;15344;52.342;-1.290;2022-12-07T04:32:22;100989.44;;;6.15;78.54
28027;BME280;15344;52.342;-1.290;2022-12-07T04:34:47;100991.67;;;5.60;80.70
28027;BME280;15344;52.342;-1.290;2022-12-07T04:37:13;100988.04;;;4.73;82.99
28027;BME280;15344;52.342;-1.290;2022-12-07T04:39:38;100988.39;;;4.86;82.61
28027;BME280;15344;52.342;-1.290;2022-12-07T04:42:03;100990.42;;;5.65;81.06
28027;BME280;15344;52.342;-1.290;2022-12-07T04:44:29;100987.47;;;6.08;79.35
28027;BME280;15344;52.342;-1.290;2022-12-07T04:46:55;100983.89;;;5.63;80.33
28027;BME280;15344;52.342;-1.290;2022-12-07T04:49:21;100983.02;;;6.54;77.08
28027;BME280;15344;52.342;-1.290;2022-12-07T04:51:46;100984.38;;;5.84;79.32
28027;BME280;15344;52.342;-1.290;2022-12-07T04:54:11;100983.62;;;5.10;82.82
28027;BME280;15344;52.342;-1.290;2022-12-07T04:56:36;100985.96;;;6.23;78.33
28027;BME280;15344;52.342;-1.290;2022-12-07T04:59:03;100986.24;;;6.16;76.80
28027;BME280;15344;52.342;-1.290;2022-12-07T05:01:27;100982.08;;;6.82;73.32
28027;BME280;15344;52.342;-1.290;2022-12-07T05:03:52;100979.58;;;6.73;73.62
28027;BME280;15344;52.342;-1.290;2022-12-07T05:06:18;100973.15;;;6.78;72.94
28027;BME280;15344;52.342;-1.290;2022-12-07T05:08:43;100972.84;;;5.88;75.48
28027;BME280;15344;52.342;-1.290;2022-12-07T05:11:09;100975.76;;;6.54;73.71
28027;BME280;15344;52.342;-1.290;2022-12-07T05:13:33;100972.67;;;6.25;75.00
28027;BME280;15344;52.342;-1.290;2022-12-07T05:15:58;100970.36;;;6.37;74.90
28027;BME280;15344;52.342;-1.290;2022-12-07T05:18:24;100971.48;;;6.23;74.70
28027;BME280;15344;52.342;-1.290;2022-12-07T05:20:49;100970.98;;;6.29;74.83
28027;BME280;15344;52.342;-1.290;2022-12-07T05:23:14;100964.96;;;6.75;72.63
28027;BME280;15344;52.342;-1.290;2022-12-07T05:25:40;100966.66;;;6.28;73.37
28027;BME280;15344;52.342;-1.290;2022-12-07T05:28:06;100970.63;;;4.93;77.04
28027;BME280;15344;52.342;-1.290;2022-12-07T05:30:31;100968.98;;;5.34;78.27
28027;BME280;15344;52.342;-1.290;2022-12-07T05:32:56;100970.67;;;5.84;75.69
28027;BME280;15344;52.342;-1.290;2022-12-07T05:35:21;100967.07;;;6.35;73.43
28027;BME280;15344;52.342;-1.290;2022-12-07T05:37:47;100957.98;;;6.19;75.28
28027;BME280;15344;52.342;-1.290;2022-12-07T05:40:13;100952.16;;;5.98;74.70
28027;BME280;15344;52.342;-1.290;2022-12-07T05:42:38;100948.82;;;6.43;73.46
28027;BME280;15344;52.342;-1.290;2022-12-07T05:45:03;100951.42;;;6.48;71.43
28027;BME280;15344;52.342;-1.290;2022-12-07T05:47:28;100956.83;;;6.18;73.95
28027;BME280;15344;52.342;-1.290;2022-12-07T05:49:54;100950.12;;;6.40;71.67
28027;BME280;15344;52.342;-1.290;2022-12-07T05:52:19;100959.44;;;6.21;73.82
28027;BME280;15344;52.342;-1.290;2022-12-07T05:54:45;100963.14;;;5.57;75.37
28027;BME280;15344;52.342;-1.290;2022-12-07T05:57:10;100962.12;;;5.74;75.63
28027;BME280;15344;52.342;-1.290;2022-12-07T05:59:34;100960.78;;;5.63;76.09
28027;BME280;15344;52.342;-1.290;2022-12-07T06:02:02;100955.60;;;6.08;72.95
28027;BME280;15344;52.342;-1.290;2022-12-07T06:04:28;100959.95;;;5.14;76.86
28027;BME280;15344;52.342;-1.290;2022-12-07T06:06:52;100958.29;;;4.89;79.26
28027;BME280;15344;52.342;-1.290;2022-12-07T06:09:18;100958.86;;;5.41;76.72
28027;BME280;15344;52.342;-1.290;2022-12-07T06:11:42;100959.96;;;4.81;80.87
28027;BME280;15344;52.342;-1.290;2022-12-07T06:14:07;100957.99;;;5.99;74.45
28027;BME280;15344;52.342;-1.290;2022-12-07T06:16:32;100957.52;;;6.09;73.14
28027;BME280;15344;52.342;-1.290;2022-12-07T06:18:58;100954.80;;;6.34;71.97
28027;BME280;15344;52.342;-1.290;2022-12-07T06:21:23;100956.32;;;6.14;73.14
28027;BME280;15344;52.342;-1.290;2022-12-07T06:23:49;100958.39;;;5.59;74.75
28027;BME280;15344;52.342;-1.290;2022-12-07T06:26:14;100958.96;;;5.01;80.75
28027;BME280;15344;52.342;-1.290;2022-12-07T06:28:39;100957.91;;;4.10;83.70
28027;BME280;15344;52.342;-1.290;2022-12-07T06:31:05;100961.26;;;5.16;77.47
28027;BME280;15344;52.342;-1.290;2022-12-07T06:33:30;100955.79;;;5.25;77.55
28027;BME280;15344;52.342;-1.290;2022-12-07T06:35:55;100953.87;;;5.79;75.14
28027;BME280;15344;52.342;-1.290;2022-12-07T06:38:21;100950.80;;;6.02;73.31
28027;BME280;15344;52.342;-1.290;2022-12-07T06:40:46;100947.37;;;6.23;71.99
28027;BME280;15344;52.342;-1.290;2022-12-07T06:43:12;100947.02;;;5.79;74.13
28027;BME280;15344;52.342;-1.290;2022-12-07T06:45:37;100944.64;;;5.84;73.19
28027;BME280;15344;52.342;-1.290;2022-12-07T06:48:03;100942.10;;;5.32;75.31
28027;BME280;15344;52.342;-1.290;2022-12-07T06:50:28;100946.03;;;5.79;74.21
28027;BME280;15344;52.342;-1.290;2022-12-07T06:52:54;100945.62;;;5.25;77.04
28027;BME280;15344;52.342;-1.290;2022-12-07T06:55:19;100950.94;;;5.28;76.01
28027;BME280;15344;52.342;-1.290;2022-12-07T06:57:44;100950.71;;;5.65;76.11
28027;BME280;15344;52.342;-1.290;2022-12-07T07:00:11;100950.42;;;4.43;79.48
28027;BME280;15344;52.342;-1.290;2022-12-07T07:02:35;100950.93;;;5.35;75.29
28027;BME280;15344;52.342;-1.290;2022-12-07T07:05:01;100951.33;;;5.68;74.57
28027;BME280;15344;52.342;-1.290;2022-12-07T07:07:26;100955.35;;;5.68;74.31
28027;BME280;15344;52.342;-1.290;2022-12-07T07:09:51;100955.31;;;6.03;72.12
28027;BME280;15344;52.342;-1.290;2022-12-07T07:12:17;100957.98;;;5.63;74.13
28027;BME280;15344;52.342;-1.290;2022-12-07T07:14:42;100960.89;;;5.06;75.81
28027;BME280;15344;52.342;-1.290;2022-12-07T07:17:08;100960.19;;;5.18;76.98
28027;BME280;15344;52.342;-1.290;2022-12-07T07:19:33;100956.61;;;5.85;74.00
28027;BME280;15344;52.342;-1.290;2022-12-07T07:21:59;100954.26;;;4.94;74.03
28027;BME280;15344;52.342;-1.290;2022-12-07T07:24:24;100952.42;;;5.94;70.97
28027;BME280;15344;52.342;-1.290;2022-12-07T07:26:49;100953.30;;;6.04;71.21
28027;BME280;15344;52.342;-1.290;2022-12-07T07:29:14;100952.42;;;5.05;73.86
28027;BME280;15344;52.342;-1.290;2022-12-07T07:31:39;100950.58;;;5.16;73.10
28027;BME280;15344;52.342;-1.290;2022-12-07T07:34:05;100951.87;;;6.07;72.27
28027;BME280;15344;52.342;-1.290;2022-12-07T07:36:30;100947.90;;;4.99;74.52
28027;BME280;15344;52.342;-1.290;2022-12-07T07:38:55;100944.34;;;5.87;70.28
28027;BME280;15344;52.342;-1.290;2022-12-07T07:41:22;100946.10;;;5.68;70.53
28027;BME280;15344;52.342;-1.290;2022-12-07T07:43:47;100945.33;;;6.02;70.10
28027;BME280;15344;52.342;-1.290;2022-12-07T07:46:13;100947.33;;;6.23;69.99
28027;BME280;15344;52.342;-1.290;2022-12-07T07:48:38;100951.15;;;5.50;72.60
28027;BME280;15344;52.342;-1.290;2022-12-07T07:51:05;100950.42;;;5.65;70.41
28027;BME280;15344;52.342;-1.290;2022-12-07T07:53:28;100946.21;;;6.31;69.17
28027;BME280;15344;52.342;-1.290;2022-12-07T07:55:54;100947.35;;;5.76;69.56
28027;BME280;15344;52.342;-1.290;2022-12-07T07:58:19;100949.27;;;5.66;70.29
28027;BME280;15344;52.342;-1.290;2022-12-07T08:00:44;100948.22;;;5.94;70.25
28027;BME280;15344;52.342;-1.290;2022-12-07T08:03:10;100949.20;;;5.79;69.79
28027;BME280;15344;52.342;-1.290;2022-12-07T08:05:37;100956.43;;;5.63;69.60
28027;BME280;15344;52.342;-1.290;2022-12-07T08:08:01;100958.79;;;6.00;68.57
28027;BME280;15344;52.342;-1.290;2022-12-07T08:10:26;100957.97;;;5.78;68.29
28027;BME280;15344;52.342;-1.290;2022-12-07T08:12:51;100957.72;;;6.05;68.69
28027;BME280;15344;52.342;-1.290;2022-12-07T08:15:17;100958.15;;;5.78;69.89
28027;BME280;15344;52.342;-1.290;2022-12-07T08:17:42;100958.40;;;4.22;76.37
28027;BME280;15344;52.342;-1.290;2022-12-07T08:20:08;100959.67;;;4.89;74.81
28027;BME280;15344;52.342;-1.290;2022-12-07T08:22:33;100956.58;;;4.53;74.83
28027;BME280;15344;52.342;-1.290;2022-12-07T08:24:59;100953.13;;;4.51;75.98
28027;BME280;15344;52.342;-1.290;2022-12-07T08:27:25;100954.20;;;5.01;74.70
28027;BME280;15344;52.342;-1.290;2022-12-07T08:29:51;100957.80;;;5.95;70.74
28027;BME280;15344;52.342;-1.290;2022-12-07T08:32:16;100957.08;;;5.66;71.15
28027;BME280;15344;52.342;-1.290;2022-12-07T08:34:42;100955.15;;;5.81;69.53
28027;BME280;15344;52.342;-1.290;2022-12-07T08:37:07;100957.15;;;4.86;73.91
28027;BME280;15344;52.342;-1.290;2022-12-07T08:39:33;100959.63;;;5.42;71.40
28027;BME280;15344;52.342;-1.290;2022-12-07T08:41:59;100962.96;;;5.90;69.72
28027;BME280;15344;52.342;-1.290;2022-12-07T08:44:24;100961.97;;;5.01;73.32
28027;BME280;15344;52.342;-1.290;2022-12-07T08:46:52;100958.37;;;5.10;73.01
28027;BME280;15344;52.342;-1.290;2022-12-07T08:49:17;100956.31;;;5.95;70.29
28027;BME280;15344;52.342;-1.290;2022-12-07T08:51:41;100949.19;;;4.81;75.94
28027;BME280;15344;52.342;-1.290;2022-12-07T08:54:09;100945.60;;;5.57;71.73
28027;BME280;15344;52.342;-1.290;2022-12-07T08:56:31;100947.31;;;5.11;73.75
28027;BME280;15344;52.342;-1.290;2022-12-07T08:58:57;100946.83;;;4.87;75.29
28027;BME280;15344;52.342;-1.290;2022-12-07T09:01:22;100944.09;;;5.60;72.44
28027;BME280;15344;52.342;-1.290;2022-12-07T09:03:47;100943.23;;;5.28;73.95
28027;BME280;15344;52.342;-1.290;2022-12-07T09:06:12;100947.55;;;5.24;74.55
28027;BME280;15344;52.342;-1.290;2022-12-07T09:08:40;100945.58;;;5.45;74.13
28027;BME280;15344;52.342;-1.290;2022-12-07T09:11:03;100946.35;;;4.15;78.97
28027;BME280;15344;52.342;-1.290;2022-12-07T09:13:29;100954.00;;;5.44;76.99
28027;BME280;15344;52.342;-1.290;2022-12-07T09:15:54;100955.01;;;5.77;72.96
28027;BME280;15344;52.342;-1.290;2022-12-07T09:18:20;100956.94;;;5.90;72.80
28027;BME280;15344;52.342;-1.290;2022-12-07T09:20:45;100955.32;;;6.15;72.44
28027;BME280;15344;52.342;-1.290;2022-12-07T09:23:10;100952.18;;;5.67;75.28
28027;BME280;15344;52.342;-1.290;2022-12-07T09:25:36;100951.32;;;5.82;74.24
28027;BME280;15344;52.342;-1.290;2022-12-07T09:28:02;100948.47;;;5.87;74.40
28027;BME280;15344;52.342;-1.290;2022-12-07T09:30:27;100946.18;;;6.20;74.82
28027;BME280;15344;52.342;-1.290;2022-12-07T09:32:54;100942.34;;;5.40;77.00
28027;BME280;15344;52.342;-1.290;2022-12-07T09:35:18;100941.78;;;6.19;75.70
28027;BME280;15344;52.342;-1.290;2022-12-07T09:37:44;100941.65;;;6.50;75.12
28027;BME280;15344;52.342;-1.290;2022-12-07T09:40:10;100936.85;;;6.56;75.78
28027;BME280;15344;52.342;-1.290;2022-12-07T09:42:37;100939.85;;;6.20;75.86
28027;BME280;15344;52.342;-1.290;2022-12-07T09:45:01;100936.19;;;6.37;74.13
28027;BME280;15344;52.342;-1.290;2022-12-07T09:47:26;100939.23;;;7.01;73.20
28027;BME280;15344;52.342;-1.290;2022-12-07T09:49:53;100935.87;;;6.74;71.99
28027;BME280;15344;52.342;-1.290;2022-12-07T09:52:20;100937.41;;;6.66;73.18
28027;BME280;15344;52.342;-1.290;2022-12-07T09:54:48;100939.81;;;6.57;72.93
28027;BME280;15344;52.342;-1.290;2022-12-07T09:57:09;100940.69;;;6.62;74.43
28027;BME280;15344;52.342;-1.290;2022-12-07T09:59:34;100938.48;;;6.24;74.97
28027;BME280;15344;52.342;-1.290;2022-12-07T10:04:25;100936.16;;;6.77;75.09
28027;BME280;15344;52.342;-1.290;2022-12-07T10:06:50;100931.92;;;7.28;74.08
28027;BME280;15344;52.342;-1.290;2022-12-07T10:09:17;100931.81;;;6.69;74.28
28027;BME280;15344;52.342;-1.290;2022-12-07T10:14:12;100927.28;;;6.79;75.41
28027;BME280;15344;52.342;-1.290;2022-12-07T10:16:38;100927.19;;;7.19;74.39
28027;BME280;15344;52.342;-1.290;2022-12-07T10:18:57;100923.33;;;6.96;75.84
28027;BME280;15344;52.342;-1.290;2022-12-07T10:21:24;100920.66;;;6.62;76.12
28027;BME280;15344;52.342;-1.290;2022-12-07T10:26:26;100918.91;;;7.19;75.68
28027;BME280;15344;52.342;-1.290;2022-12-07T10:28:39;100913.78;;;7.06;76.30
28027;BME280;15344;52.342;-1.290;2022-12-07T10:31:15;100911.59;;;6.87;76.40
28027;BME280;15344;52.342;-1.290;2022-12-07T10:33:33;100909.15;;;6.66;77.37
28027;BME280;15344;52.342;-1.290;2022-12-07T10:35:55;100905.45;;;6.70;79.24
28027;BME280;15344;52.342;-1.290;2022-12-07T10:38:20;100912.78;;;7.53;75.63
28027;BME280;15344;52.342;-1.290;2022-12-07T10:40:46;100917.83;;;7.47;76.27
28027;BME280;15344;52.342;-1.290;2022-12-07T10:43:18;100915.84;;;7.20;76.56
28027;BME280;15344;52.342;-1.290;2022-12-07T10:45:54;100910.67;;;6.98;77.36
28027;BME280;15344;52.342;-1.290;2022-12-07T10:48:10;100908.23;;;7.24;76.33
28027;BME280;15344;52.342;-1.290;2022-12-07T10:50:47;100905.39;;;7.34;76.11
28027;BME280;15344;52.342;-1.290;2022-12-07T10:55:23;100892.23;;;7.67;74.31
28027;BME280;15344;52.342;-1.290;2022-12-07T10:57:58;100889.36;;;7.59;75.67
28027;BME280;15344;52.342;-1.290;2022-12-07T11:00:16;100883.89;;;7.68;73.41
28027;BME280;15344;52.342;-1.290;2022-12-07T11:02:49;100880.24;;;7.84;73.67
28027;BME280;15344;52.342;-1.290;2022-12-07T11:05:11;100876.99;;;8.17;72.71
28027;BME280;15344;52.342;-1.290;2022-12-07T11:07:36;100876.97;;;7.84;74.04
28027;BME280;15344;52.342;-1.290;2022-12-07T11:10:01;100877.05;;;7.71;74.07
28027;BME280;15344;52.342;-1.290;2022-12-07T11:12:25;100882.06;;;7.53;75.26
28027;BME280;15344;52.342;-1.290;2022-12-07T11:14:49;100876.64;;;8.42;71.54
28027;BME280;15344;52.342;-1.290;2022-12-07T11:17:13;100873.65;;;8.52;71.41
28027;BME280;15344;52.342;-1.290;2022-12-07T11:19:43;100871.02;;;7.65;74.84
28027;BME280;15344;52.342;-1.290;2022-12-07T11:22:06;100860.89;;;8.16;73.39
28027;BME280;15344;52.342;-1.290;2022-12-07T11:24:30;100855.87;;;7.81;74.88
28027;BME280;15344;52.342;-1.290;2022-12-07T11:27:03;100856.07;;;6.86;77.89
28027;BME280;15344;52.342;-1.290;2022-12-07T11:29:31;100844.04;;;7.96;75.13
28027;BME280;15344;52.342;-1.290;2022-12-07T11:31:50;100845.65;;;7.33;76.12
28027;BME280;15344;52.342;-1.290;2022-12-07T11:34:13;100843.88;;;6.40;80.09
28027;BME280;15344;52.342;-1.290;2022-12-07T11:36:37;100839.87;;;6.72;78.45
28027;BME280;15344;52.342;-1.290;2022-12-07T11:39:00;100833.82;;;7.54;77.92
28027;BME280;15344;52.342;-1.290;2022-12-07T11:41:27;100828.23;;;7.29;77.40
28027;BME280;15344;52.342;-1.290;2022-12-07T11:43:55;100827.84;;;7.33;77.22
28027;BME280;15344;52.342;-1.290;2022-12-07T11:46:15;100825.21;;;6.78;79.29
28027;BME280;15344;52.342;-1.290;2022-12-07T11:48:46;100820.48;;;7.77;75.59
28027;BME280;15344;52.342;-1.290;2022-12-07T11:51:09;100824.22;;;6.38;80.62
28027;BME280;15344;52.342;-1.290;2022-12-07T11:53:35;100817.03;;;7.72;76.13
28027;BME280;15344;52.342;-1.290;2022-12-07T11:56:00;100813.66;;;7.43;76.20
28027;BME280;15344;52.342;-1.290;2022-12-07T12:00:48;100810.07;;;7.89;73.99
28027;BME280;15344;52.342;-1.290;2022-12-07T12:03:15;100808.48;;;8.31;71.85
28027;BME280;15344;52.342;-1.290;2022-12-07T12:05:39;100805.13;;;7.87;73.61
28027;BME280;15344;52.342;-1.290;2022-12-07T12:08:11;100802.50;;;8.21;74.02
28027;BME280;15344;52.342;-1.290;2022-12-07T12:10:37;100799.15;;;8.14;73.70
28027;BME280;15344;52.342;-1.290;2022-12-07T12:15:29;100795.66;;;8.12;73.62
28027;BME280;15344;52.342;-1.290;2022-12-07T12:17:56;100792.47;;;7.77;75.36
28027;BME280;15344;52.342;-1.290;2022-12-07T12:20:18;100789.77;;;7.97;73.85
28027;BME280;15344;52.342;-1.290;2022-12-07T12:22:38;100786.73;;;8.10;72.98
28027;BME280;15344;52.342;-1.290;2022-12-07T12:25:05;100787.71;;;5.88;82.17
28027;BME280;15344;52.342;-1.290;2022-12-07T12:27:29;100778.27;;;6.81;79.57
28027;BME280;15344;52.342;-1.290;2022-12-07T12:29:54;100780.47;;;6.33;80.38
28027;BME280;15344;52.342;-1.290;2022-12-07T12:32:19;100776.09;;;6.18;81.80
28027;BME280;15344;52.342;-1.290;2022-12-07T12:39:32;100763.21;;;7.30;77.70
28027;BME280;15344;52.342;-1.290;2022-12-07T12:42:00;100761.10;;;6.53;80.80
28027;BME280;15344;52.342;-1.290;2022-12-07T12:46:51;100758.48;;;6.95;80.13
28027;BME280;15344;52.342;-1.290;2022-12-07T12:51:41;100748.09;;;7.08;78.00
28027;BME280;15344;52.342;-1.290;2022-12-07T12:54:12;100743.49;;;7.03;78.73
28027;BME280;15344;52.342;-1.290;2022-12-07T12:56:38;100746.18;;;6.60;80.14
28027;BME280;15344;52.342;-1.290;2022-12-07T13:03:52;100735.19;;;5.47;84.47
28027;BME280;15344;52.342;-1.290;2022-12-07T13:06:30;100731.00;;;6.29;82.36
28027;BME280;15344;52.342;-1.290;2022-12-07T13:08:40;100723.12;;;6.44;81.09
28027;BME280;15344;52.342;-1.290;2022-12-07T13:13:32;100722.00;;;6.60;81.47
28027;BME280;15344;52.342;-1.290;2022-12-07T13:18:25;100713.64;;;7.69;77.39
28027;BME280;15344;52.342;-1.290;2022-12-07T13:20:51;100706.94;;;7.36;78.22
28027;BME280;15344;52.342;-1.290;2022-12-07T13:23:12;100705.15;;;7.03;78.99